createdAt,value
2023-03-20T00:01:06.946Z,1.32
2023-03-20T00:03:12.328Z,1.29
2023-03-20T00:05:17.679Z,1.24
2023-03-20T00:07:24.299Z,1.2
2023-03-20T00:09:29.726Z,1.14
2023-03-20T00:11:35.490Z,1.12
2023-03-20T00:13:41.001Z,1.04
2023-03-20T00:15:46.548Z,0.99
2023-03-20T00:17:52.092Z,0.9
2023-03-20T00:19:57.438Z,0.87
2023-03-20T00:22:02.958Z,0.92
2023-03-20T00:24:08.504Z,0.93
2023-03-20T00:26:13.989Z,0.92
2023-03-20T00:28:19.305Z,0.93
2023-03-20T00:30:24.802Z,0.94
2023-03-20T00:32:29.982Z,0.87
2023-03-20T00:34:35.691Z,0.94
2023-03-20T00:36:43.078Z,0.94
2023-03-20T00:38:48.253Z,0.89
2023-03-20T00:40:53.473Z,0.87
2023-03-20T00:42:58.923Z,0.77
2023-03-20T00:45:04.526Z,0.8
2023-03-20T00:47:09.883Z,0.83
2023-03-20T00:49:14.986Z,0.79
2023-03-20T00:51:20.677Z,0.77
2023-03-20T00:53:26.141Z,0.7
2023-03-20T00:55:31.386Z,0.73
2023-03-20T00:57:37.727Z,0.77
2023-03-20T00:59:43.057Z,0.73
2023-03-20T01:01:50.430Z,0.67
2023-03-20T01:03:56.123Z,0.7
2023-03-20T01:06:01.346Z,0.68
2023-03-20T01:08:06.933Z,0.67
2023-03-20T01:10:12.171Z,0.66
2023-03-20T01:12:18.752Z,0.65
2023-03-20T01:14:24.118Z,0.63
2023-03-20T01:16:29.849Z,0.57
2023-03-20T01:18:35.331Z,0.61
2023-03-20T01:20:40.488Z,0.6
2023-03-20T01:22:47.836Z,0.62
2023-03-20T01:24:53.272Z,0.73
2023-03-20T01:26:58.808Z,0.8
2023-03-20T01:29:04.130Z,0.79
2023-03-20T01:31:09.503Z,0.74
2023-03-20T01:33:14.845Z,0.74
2023-03-20T01:35:20.406Z,0.74
2023-03-20T01:37:25.867Z,0.76
2023-03-20T01:39:31.310Z,0.86
2023-03-20T01:41:36.963Z,0.85
2023-03-20T01:43:42.556Z,0.82
2023-03-20T01:45:48.167Z,0.78
2023-03-20T01:47:53.620Z,0.77
2023-03-20T01:49:59.123Z,0.75
2023-03-20T01:52:04.526Z,0.73
2023-03-20T01:54:09.676Z,0.84
2023-03-20T01:56:15.231Z,0.87
2023-03-20T01:58:20.533Z,0.87
2023-03-20T02:00:27.003Z,0.88
2023-03-20T02:02:32.200Z,0.94
2023-03-20T02:04:37.736Z,1.04
2023-03-20T02:06:43.455Z,1.12
2023-03-20T02:08:48.827Z,1.07
2023-03-20T02:10:54.285Z,1.01
2023-03-20T02:13:00.062Z,0.98
2023-03-20T02:15:05.450Z,0.9
2023-03-20T02:17:10.465Z,0.85
2023-03-20T02:19:15.808Z,0.78
2023-03-20T02:21:21.009Z,0.78
2023-03-20T02:23:26.609Z,0.83
2023-03-20T02:25:31.813Z,0.8
2023-03-20T02:27:38.046Z,0.83
2023-03-20T02:29:43.424Z,0.82
2023-03-20T02:31:49.248Z,0.86
2023-03-20T02:33:54.578Z,0.83
2023-03-20T02:35:59.837Z,0.81
2023-03-20T02:38:06.570Z,0.79
2023-03-20T02:40:11.769Z,0.84
2023-03-20T02:42:17.173Z,0.9
2023-03-20T02:44:22.674Z,1
2023-03-20T02:46:29.116Z,1.13
2023-03-20T02:48:34.924Z,1.07
2023-03-20T02:50:40.370Z,1.05
2023-03-20T02:52:46.909Z,1
2023-03-20T02:54:52.282Z,0.97
2023-03-20T02:56:57.604Z,0.89
2023-03-20T02:59:04.121Z,0.83
2023-03-20T03:01:09.560Z,0.79
2023-03-20T03:03:15.105Z,0.76
2023-03-20T03:05:20.468Z,0.71
2023-03-20T03:07:25.787Z,0.71
2023-03-20T03:09:30.964Z,0.79
2023-03-20T03:11:37.360Z,0.89
2023-03-20T03:13:42.785Z,0.91
2023-03-20T03:15:48.129Z,0.87
2023-03-20T03:17:53.986Z,0.84
2023-03-20T03:19:59.197Z,0.8
2023-03-20T03:22:04.622Z,0.83
2023-03-20T03:24:09.882Z,0.87
2023-03-20T03:26:15.233Z,0.86
2023-03-20T03:28:20.514Z,0.83
2023-03-20T03:30:25.982Z,0.83
2023-03-20T03:32:31.296Z,0.78
2023-03-20T03:34:36.882Z,0.74
2023-03-20T03:36:44.369Z,0.71
2023-03-20T03:38:49.626Z,0.69
2023-03-20T03:40:55.163Z,0.65
2023-03-20T03:43:00.364Z,0.6
2023-03-20T03:45:06.783Z,0.56
2023-03-20T03:47:12.099Z,0.6
2023-03-20T03:49:17.621Z,0.63
2023-03-20T03:51:22.874Z,0.73
2023-03-20T03:53:28.260Z,0.76
2023-03-20T03:55:33.524Z,0.75
2023-03-20T03:57:40.775Z,0.77
2023-03-20T03:59:46.171Z,0.76
2023-03-20T04:01:51.515Z,0.72
2023-03-20T04:03:57.165Z,0.7
2023-03-20T04:06:03.568Z,0.68
2023-03-20T04:08:09.057Z,0.72
2023-03-20T04:10:15.891Z,0.75
2023-03-20T04:12:21.847Z,0.88
2023-03-20T04:14:27.582Z,1
2023-03-20T04:16:32.747Z,0.99
2023-03-20T04:18:38.238Z,0.98
2023-03-20T04:20:43.623Z,0.94
2023-03-20T04:22:50.896Z,0.98
2023-03-20T04:24:56.501Z,0.95
2023-03-20T04:27:01.849Z,0.91
2023-03-20T04:29:07.607Z,0.88
2023-03-20T04:31:12.799Z,0.85
2023-03-20T04:33:18.715Z,0.89
2023-03-20T04:35:24.060Z,0.89
2023-03-20T04:37:29.304Z,0.86
2023-03-20T04:39:34.688Z,0.85
2023-03-20T04:41:40.177Z,0.8
2023-03-20T04:43:45.449Z,0.83
2023-03-20T04:45:50.657Z,0.77
2023-03-20T04:47:57.224Z,0.7
2023-03-20T04:50:02.564Z,0.69
2023-03-20T04:52:07.969Z,0.67
2023-03-20T04:54:13.269Z,0.66
2023-03-20T04:56:18.749Z,0.67
2023-03-20T04:58:24.243Z,0.69
2023-03-20T05:00:29.876Z,0.73
2023-03-20T05:02:35.112Z,0.72
2023-03-20T05:04:40.427Z,0.75
2023-03-20T05:06:45.731Z,0.75
2023-03-20T05:08:50.909Z,0.73
2023-03-20T05:10:56.204Z,0.7
2023-03-20T05:13:01.438Z,0.64
2023-03-20T05:15:06.822Z,0.62
2023-03-20T05:17:12.197Z,0.63
2023-03-20T05:19:17.398Z,0.62
2023-03-20T05:21:24.024Z,0.64
2023-03-20T05:23:29.569Z,0.67
2023-03-20T05:25:35.279Z,0.73
2023-03-20T05:27:41.232Z,0.79
2023-03-20T05:29:46.520Z,0.83
2023-03-20T05:31:52.020Z,0.87
2023-03-20T05:33:57.492Z,0.87
2023-03-20T05:36:02.991Z,0.92
2023-03-20T05:38:08.561Z,0.95
2023-03-20T05:40:14.072Z,0.97
2023-03-20T05:42:19.351Z,1.02
2023-03-20T05:44:24.944Z,1.07
2023-03-20T05:46:30.646Z,1.17
2023-03-20T05:48:36.290Z,1.28
2023-03-20T05:50:41.858Z,1.37
2023-03-20T05:52:47.056Z,1.48
2023-03-20T05:54:53.547Z,1.6
2023-03-20T05:56:59.325Z,1.71
2023-03-20T05:59:05.620Z,1.86
2023-03-20T06:01:11.042Z,2.06
2023-03-20T06:03:16.344Z,2.23
2023-03-20T06:05:22.637Z,2.39
2023-03-20T06:07:27.835Z,2.51
2023-03-20T06:09:33.242Z,2.58
2023-03-20T06:11:38.653Z,2.72
2023-03-20T06:13:43.986Z,2.9
2023-03-20T06:15:49.319Z,3.03
2023-03-20T06:17:55.082Z,3.1
2023-03-20T06:20:01.746Z,3.35
2023-03-20T06:22:07.054Z,3.64
2023-03-20T06:24:15.678Z,3.81
2023-03-20T06:26:21.427Z,3.98
2023-03-20T06:28:26.920Z,4.09
2023-03-20T06:30:32.671Z,4.24
2023-03-20T06:32:41.103Z,4.42
2023-03-20T06:34:47.015Z,4.65
2023-03-20T06:36:52.661Z,4.94
2023-03-20T06:38:57.943Z,5.27
2023-03-20T06:41:03.294Z,5.69
2023-03-20T06:43:09.515Z,6.3
2023-03-20T06:45:14.950Z,7.16
2023-03-20T06:47:20.406Z,7.64
2023-03-20T06:49:25.897Z,7.5
2023-03-20T06:51:34.376Z,7.75
2023-03-20T06:53:40.962Z,7.78
2023-03-20T06:55:46.450Z,7.63
2023-03-20T06:57:51.870Z,7.88
2023-03-20T06:59:57.183Z,8.02
2023-03-20T07:02:02.436Z,8.01
2023-03-20T07:04:08.036Z,8.16
2023-03-20T07:06:14.510Z,8.52
2023-03-20T07:08:19.710Z,8.89
2023-03-20T07:10:24.955Z,9.12
2023-03-20T07:12:30.463Z,9.42
2023-03-20T07:14:36.966Z,9.67
2023-03-20T07:16:42.165Z,9.18
2023-03-20T07:18:47.792Z,9.37
2023-03-20T07:20:53.166Z,9.36
2023-03-20T07:22:58.764Z,9.5
2023-03-20T07:25:04.259Z,9.82
2023-03-20T07:27:09.687Z,9.83
2023-03-20T07:29:15.336Z,10.22
2023-03-20T07:31:21.037Z,10.66
2023-03-20T07:33:26.914Z,10.66
2023-03-20T07:35:34.167Z,10.87
2023-03-20T07:37:41.246Z,11.32
2023-03-20T07:39:46.635Z,11.59
2023-03-20T07:41:52.427Z,11.52
2023-03-20T07:43:57.924Z,11.44
2023-03-20T07:46:03.463Z,11.99
2023-03-20T07:48:09.363Z,12.19
2023-03-20T07:50:15.337Z,12.22
2023-03-20T07:52:21.409Z,11.57
2023-03-20T07:54:27.552Z,11.49
2023-03-20T07:56:33.164Z,11.24
2023-03-20T07:58:39.557Z,11.52
2023-03-20T08:00:45.576Z,11.44
2023-03-20T08:03:05.676Z,11.53
2023-03-20T08:05:13.138Z,11.83
2023-03-20T08:07:20.323Z,11.91
2023-03-20T08:09:26.650Z,11.96
2023-03-20T08:11:34.240Z,12.09
2023-03-20T08:13:40.391Z,12.17
2023-03-20T08:15:46.555Z,12.39
2023-03-20T08:17:52.637Z,12.62
2023-03-20T08:19:58.147Z,12.48
2023-03-20T08:22:06.150Z,12.63
2023-03-20T08:24:11.657Z,12.96
2023-03-20T08:26:17.070Z,13.43
2023-03-20T08:28:30.936Z,13.63
2023-03-20T08:30:54.556Z,13.71
2023-03-20T08:33:00.707Z,13.7
2023-03-20T08:35:06.472Z,13.54
2023-03-20T08:37:37.181Z,14.11
2023-03-20T08:39:42.657Z,14.16
2023-03-20T08:41:48.165Z,14.4
2023-03-20T08:43:54.088Z,14.52
2023-03-20T08:45:59.614Z,15.01
2023-03-20T08:48:05.090Z,15.09
2023-03-20T08:50:10.788Z,15.32
2023-03-20T08:52:17.343Z,15.36
2023-03-20T08:54:22.812Z,16.09
2023-03-20T08:56:28.224Z,17.27
2023-03-20T08:58:33.948Z,17.86
2023-03-20T09:00:40.585Z,18.65
2023-03-20T09:02:46.350Z,18.69
2023-03-20T09:04:52.135Z,17.8
2023-03-20T09:06:57.629Z,17.39
2023-03-20T09:09:06.008Z,17.71
2023-03-20T09:11:11.335Z,18.38
2023-03-20T09:13:26.516Z,18.06
2023-03-20T09:15:32.973Z,18.21
2023-03-20T09:17:39.822Z,18.59
2023-03-20T09:19:45.290Z,19.12
2023-03-20T09:21:51.951Z,20.07
2023-03-20T09:23:57.825Z,18.95
2023-03-20T09:26:13.059Z,18.81
2023-03-20T09:28:20.205Z,18.86
2023-03-20T09:33:06.404Z,17.77
2023-03-20T09:35:58.060Z,17.84
2023-03-20T09:38:03.896Z,17.29
2023-03-20T09:40:11.425Z,17.26
2023-03-20T09:42:32.590Z,17.15
2023-03-20T09:44:38.478Z,17.04
2023-03-20T09:46:51.411Z,17.1
2023-03-20T09:49:20.364Z,17.36
2023-03-20T09:51:26.000Z,16.86
2023-03-20T09:53:31.505Z,16.79
2023-03-20T09:55:37.238Z,16.75
2023-03-20T09:57:43.922Z,16.35
2023-03-20T09:59:49.941Z,17.17
2023-03-20T10:01:55.389Z,17.41
2023-03-20T10:04:01.097Z,17.04
2023-03-20T10:06:07.056Z,16.98
2023-03-20T10:08:15.003Z,16.9
2023-03-20T10:10:21.871Z,17.27
2023-03-20T10:12:27.264Z,17.88
2023-03-20T10:14:32.618Z,16.88
2023-03-20T10:16:38.168Z,17.9
2023-03-20T10:18:44.106Z,17.22
2023-03-20T10:20:50.908Z,17.69
2023-03-20T10:22:56.350Z,18.29
2023-03-20T10:25:02.029Z,18.22
2023-03-20T10:27:07.872Z,18
2023-03-20T10:29:13.308Z,17.48
2023-03-20T10:31:19.792Z,17.5
2023-03-20T10:33:25.421Z,17.58
2023-03-20T10:35:30.981Z,17.75
2023-03-20T10:37:36.734Z,17.97
2023-03-20T10:39:42.089Z,17.96
2023-03-20T10:41:47.961Z,18.15
2023-03-20T10:43:53.977Z,18.21
2023-03-20T10:45:59.650Z,17.82
2023-03-20T10:48:06.116Z,17.73
2023-03-20T10:50:11.794Z,17.66
2023-03-20T10:52:17.422Z,17.37
2023-03-20T10:54:24.579Z,17.11
2023-03-20T10:56:30.824Z,16.49
2023-03-20T10:58:36.296Z,16.09
2023-03-20T11:00:41.680Z,16.16
2023-03-20T11:02:47.998Z,16.45
2023-03-20T11:04:54.189Z,16.57
2023-03-20T11:07:00.262Z,16.78
2023-03-20T11:09:05.952Z,16.56
2023-03-20T11:11:14.944Z,16.73
2023-03-20T11:13:23.257Z,16.64
2023-03-20T11:15:30.000Z,16.57
2023-03-20T11:17:35.377Z,16.44
2023-03-20T11:19:40.715Z,16.39
2023-03-20T11:21:47.183Z,16.13
2023-03-20T11:23:52.633Z,16.64
2023-03-20T11:25:57.845Z,16.75
2023-03-20T11:28:03.612Z,16.8
2023-03-20T11:30:09.756Z,16.66
2023-03-20T11:32:15.867Z,16.5
2023-03-20T11:34:21.611Z,16.48
2023-03-20T11:36:28.230Z,16.77
2023-03-20T11:38:33.930Z,17.05
2023-03-20T11:40:39.087Z,17.38
2023-03-20T11:42:44.790Z,17.22
2023-03-20T11:44:51.641Z,16.86
2023-03-20T11:46:57.569Z,16.59
2023-03-20T11:49:03.294Z,17.01
2023-03-20T11:51:09.164Z,16.71
2023-03-20T11:53:14.292Z,16.54
2023-03-20T11:55:19.798Z,16.32
2023-03-20T11:57:25.436Z,16.16
2023-03-20T11:59:33.362Z,16.08
2023-03-20T12:01:38.700Z,15.93
2023-03-20T12:03:46.430Z,15.94
2023-03-20T12:05:52.365Z,15.96
2023-03-20T12:07:58.096Z,16.18
2023-03-20T12:10:04.567Z,16.07
2023-03-20T12:12:10.408Z,15.82
2023-03-20T12:14:16.085Z,15.84
2023-03-20T12:16:21.389Z,15.74
2023-03-20T12:18:27.243Z,15.98
2023-03-20T12:20:33.708Z,16.27
2023-03-20T12:22:41.019Z,16.07
2023-03-20T12:26:54.486Z,15.82
2023-03-20T12:28:59.871Z,15.38
2023-03-20T12:31:06.007Z,15.22
2023-03-20T12:33:12.200Z,15.12
2023-03-20T12:35:18.546Z,15.15
2023-03-20T12:37:24.514Z,15.31
2023-03-20T12:39:30.962Z,15.22
2023-03-20T12:41:36.794Z,15.28
2023-03-20T12:43:42.890Z,15.38
2023-03-20T12:45:49.034Z,15.19
2023-03-20T12:47:55.618Z,14.97
2023-03-20T12:50:01.295Z,15.36
2023-03-20T12:52:06.772Z,15.69
2023-03-20T12:54:13.277Z,15.85
2023-03-20T12:56:20.201Z,16
2023-03-20T12:58:25.836Z,16.08
2023-03-20T13:00:32.346Z,16.21
2023-03-20T13:02:39.331Z,15.94
2023-03-20T13:04:45.221Z,15.47
2023-03-20T13:06:50.596Z,15.15
2023-03-20T13:08:57.060Z,15.18
2023-03-20T13:11:02.518Z,15.41
2023-03-20T13:13:08.118Z,15.34
2023-03-20T13:15:14.769Z,15.24
2023-03-20T13:17:22.875Z,15.4
2023-03-20T13:19:28.556Z,15.48
2023-03-20T13:21:36.090Z,15.51
2023-03-20T13:23:43.061Z,15.33
2023-03-20T13:25:48.413Z,15.18
2023-03-20T13:27:54.161Z,15.49
2023-03-20T13:29:59.802Z,15.69
2023-03-20T13:32:07.197Z,15.92
2023-03-20T13:34:12.695Z,15.52
2023-03-20T13:36:18.559Z,15.27
2023-03-20T13:38:24.205Z,15.33
2023-03-20T13:40:30.634Z,15.08
2023-03-20T13:42:36.918Z,14.86
2023-03-20T13:44:42.688Z,15.01
2023-03-20T13:46:49.332Z,14.94
2023-03-20T13:48:55.348Z,15.01
2023-03-20T13:51:02.166Z,14.95
2023-03-20T13:53:07.566Z,14.93
2023-03-20T13:55:13.143Z,14.8
2023-03-20T13:57:18.919Z,14.73
2023-03-20T13:59:24.648Z,14.6
2023-03-20T14:01:33.074Z,14.69
2023-03-20T14:03:38.835Z,14.61
2023-03-20T14:05:44.561Z,14.59
2023-03-20T14:07:50.590Z,14.63
2023-03-20T14:09:56.071Z,14.64
2023-03-20T14:12:02.127Z,14.59
2023-03-20T14:14:07.914Z,14.49
2023-03-20T14:16:13.541Z,14.4
2023-03-20T14:18:20.724Z,14.36
2023-03-20T14:20:27.195Z,14.45
2023-03-20T14:22:34.153Z,14.35
2023-03-20T14:24:40.324Z,14.26
2023-03-20T14:26:45.993Z,14.29
2023-03-20T14:28:52.148Z,14.34
2023-03-20T14:30:57.833Z,14.36
2023-03-20T14:33:03.719Z,14.29
2023-03-20T14:35:10.240Z,14.26
2023-03-20T14:37:16.234Z,14.09
2023-03-20T14:39:22.611Z,14.06
2023-03-20T14:41:28.820Z,14.08
2023-03-20T14:43:34.761Z,13.98
2023-03-20T14:45:40.552Z,14.11
2023-03-20T14:47:46.621Z,14.16
2023-03-20T14:49:53.055Z,13.99
2023-03-20T14:51:58.658Z,13.91
2023-03-20T14:54:04.410Z,13.86
2023-03-20T14:56:09.881Z,13.75
2023-03-20T14:58:16.006Z,13.63
2023-03-20T15:00:21.678Z,13.62
2023-03-20T15:02:27.536Z,13.5
2023-03-20T15:04:33.149Z,13.47
2023-03-20T15:06:38.941Z,13.42
2023-03-20T15:08:44.914Z,13.41
2023-03-20T15:10:51.212Z,13.38
2023-03-20T15:12:57.378Z,13.38
2023-03-20T15:15:05.221Z,13.39
2023-03-20T15:17:11.950Z,13.4
2023-03-20T15:19:18.787Z,13.39
2023-03-20T15:21:30.501Z,13.33
2023-03-20T15:23:38.065Z,13.32
2023-03-20T15:25:44.770Z,13.32
2023-03-20T15:27:52.014Z,13.21
2023-03-20T15:29:59.119Z,13.13
2023-03-20T15:32:14.230Z,13.08
2023-03-20T15:34:20.773Z,13.07
2023-03-20T15:36:27.412Z,13.09
2023-03-20T15:38:33.613Z,12.87
2023-03-20T15:40:50.405Z,12.79
2023-03-20T15:42:58.125Z,12.73
2023-03-20T15:45:04.773Z,12.59
2023-03-20T15:47:10.600Z,12.48
2023-03-20T15:49:17.208Z,12.42
2023-03-20T15:51:23.562Z,12.39
2023-03-20T15:53:30.658Z,12.33
2023-03-20T15:55:37.744Z,12.27
2023-03-20T15:57:44.742Z,12.2
2023-03-20T15:59:51.149Z,12.13
2023-03-20T16:01:57.368Z,12.05
2023-03-20T16:04:04.968Z,12.01
2023-03-20T16:06:10.541Z,11.95
2023-03-20T16:08:19.513Z,11.91
2023-03-20T16:10:27.487Z,11.86
2023-03-20T16:12:34.038Z,11.8
2023-03-20T16:14:40.500Z,11.73
2023-03-20T16:16:47.292Z,11.63
2023-03-20T16:18:53.305Z,11.54
2023-03-20T16:21:01.946Z,11.48
2023-03-20T16:23:08.759Z,11.41
2023-03-20T16:25:15.992Z,11.33
2023-03-20T16:27:22.621Z,11.22
2023-03-20T16:29:28.966Z,11.08
2023-03-20T16:31:35.356Z,10.85
2023-03-20T16:33:42.178Z,10.66
2023-03-20T16:35:48.701Z,10.55
2023-03-20T16:37:56.036Z,10.46
2023-03-20T16:40:03.516Z,10.31
2023-03-20T16:42:10.457Z,10.22
2023-03-20T16:44:17.429Z,10.15
2023-03-20T16:46:24.125Z,10.06
2023-03-20T16:48:31.214Z,9.92
2023-03-20T16:50:38.190Z,9.87
2023-03-20T16:52:45.160Z,9.79
2023-03-20T16:54:51.647Z,9.7
2023-03-20T16:57:00.210Z,9.68
2023-03-20T16:59:07.481Z,9.65
2023-03-20T17:01:14.867Z,9.58
2023-03-20T17:03:22.266Z,9.51
2023-03-20T17:05:30.976Z,9.41
2023-03-20T17:07:41.442Z,9.34
2023-03-20T17:09:49.662Z,9.27
2023-03-20T17:11:56.434Z,9.17
2023-03-20T17:14:04.603Z,9.1
2023-03-20T17:16:11.862Z,9.03
2023-03-20T17:18:19.357Z,8.96
2023-03-20T17:20:26.068Z,8.93
2023-03-20T17:22:33.764Z,8.93
2023-03-20T17:24:40.912Z,8.95
2023-03-20T17:26:47.983Z,8.94
2023-03-20T17:28:55.025Z,8.91
2023-03-20T17:31:03.090Z,8.88
2023-03-20T17:33:12.180Z,8.88
2023-03-20T17:35:20.182Z,8.88
2023-03-20T17:37:29.935Z,8.87
2023-03-20T17:39:42.875Z,8.88
2023-03-20T17:41:50.471Z,8.9
2023-03-20T17:44:00.569Z,8.87
2023-03-20T17:46:09.305Z,8.81
2023-03-20T17:48:16.891Z,8.71
2023-03-20T17:50:24.998Z,8.63
2023-03-20T17:52:34.092Z,8.54
2023-03-20T17:54:44.080Z,8.41
2023-03-20T17:56:53.299Z,8.32
2023-03-20T17:59:02.911Z,8.17
2023-03-20T18:01:14.150Z,7.99
2023-03-20T18:03:27.027Z,7.84
2023-03-20T18:05:34.970Z,7.67
2023-03-20T18:07:44.200Z,7.53
2023-03-20T18:09:51.960Z,7.47
2023-03-20T18:12:07.047Z,7.38
2023-03-20T18:14:26.317Z,7.27
2023-03-20T18:16:38.714Z,7.16
2023-03-20T18:18:49.310Z,7.17
2023-03-20T18:20:59.557Z,7.17
2023-03-20T18:23:09.362Z,7.21
2023-03-20T18:25:20.384Z,7.3
2023-03-20T18:27:29.757Z,7.31
2023-03-20T18:29:39.629Z,7.31
2023-03-20T18:31:48.119Z,7.32
2023-03-20T18:33:57.804Z,7.25
2023-03-20T18:36:07.812Z,7.18
2023-03-20T18:38:18.591Z,7.19
2023-03-20T18:40:27.853Z,7.16
2023-03-20T18:42:38.523Z,7.22
2023-03-20T18:44:47.796Z,7.22
2023-03-20T18:46:58.973Z,7.25
2023-03-20T18:49:08.770Z,7.26
2023-03-20T18:51:18.206Z,7.27
2023-03-20T18:53:26.116Z,7.38
2023-03-20T18:55:35.618Z,7.43
2023-03-20T18:57:50.928Z,7.46
2023-03-20T19:00:01.811Z,7.46
2023-03-20T19:02:15.056Z,7.49
2023-03-20T19:04:27.560Z,7.54
2023-03-20T19:06:40.355Z,7.57
2023-03-20T19:08:48.627Z,7.63
2023-03-20T19:10:58.896Z,7.63
2023-03-20T19:13:09.704Z,7.69
2023-03-20T19:15:24.703Z,7.72
2023-03-20T19:17:45.018Z,7.74
2023-03-20T19:19:55.184Z,7.76
2023-03-20T19:22:22.647Z,7.78
2023-03-20T19:24:37.862Z,7.8
2023-03-20T19:26:49.751Z,7.87
2023-03-20T19:29:01.513Z,7.92
2023-03-20T19:31:17.488Z,7.95
2023-03-20T19:33:30.842Z,7.95
2023-03-20T19:36:01.001Z,7.86
2023-03-20T19:38:13.507Z,7.72
2023-03-20T19:40:26.884Z,7.62
2023-03-20T19:43:01.381Z,7.48
2023-03-20T19:45:18.491Z,7.39
2023-03-20T19:47:27.590Z,7.26
2023-03-20T19:49:37.387Z,7.18
2023-03-20T19:51:54.182Z,7.15
2023-03-20T19:54:08.013Z,7.09
2023-03-20T19:56:17.544Z,7.08
2023-03-20T19:58:34.591Z,7.04
2023-03-20T20:00:57.157Z,6.98
2023-03-20T20:03:21.712Z,6.96
2023-03-20T20:05:30.102Z,6.93
2023-03-20T20:08:11.178Z,6.97
2023-03-20T20:10:54.864Z,6.95
2023-03-20T20:13:06.820Z,6.94
2023-03-20T20:15:18.036Z,6.9
2023-03-20T20:17:34.760Z,6.99
2023-03-20T20:19:45.055Z,7
2023-03-20T20:22:24.692Z,7.08
2023-03-20T20:24:36.390Z,7.19
2023-03-20T20:26:53.626Z,7.2
2023-03-20T20:29:25.079Z,7.21
2023-03-20T20:31:33.827Z,7.22
2023-03-20T20:33:59.178Z,7.3
2023-03-20T20:38:48.561Z,7.48
2023-03-20T20:41:01.142Z,7.51
2023-03-20T20:43:11.216Z,7.51
2023-03-20T20:46:21.216Z,7.58
2023-03-20T20:48:29.973Z,7.7
2023-03-20T20:50:39.612Z,8.09
2023-03-20T20:52:49.741Z,8.43
2023-03-20T20:55:07.867Z,8.64
2023-03-20T20:57:31.330Z,8.77
2023-03-20T20:59:38.880Z,8.85
2023-03-20T21:01:48.005Z,8.91
2023-03-20T21:03:57.567Z,8.97
2023-03-20T21:06:07.776Z,9.02
2023-03-20T21:08:16.370Z,9.02
2023-03-20T21:10:24.796Z,9.06
2023-03-20T21:12:38.313Z,9.05
2023-03-20T21:15:04.485Z,9.04
2023-03-20T21:17:12.484Z,8.99
2023-03-20T21:19:20.326Z,8.99
2023-03-20T21:21:27.539Z,8.97
2023-03-20T21:23:36.240Z,8.95
2023-03-20T21:25:47.135Z,8.92
2023-03-20T21:27:56.579Z,8.9
2023-03-20T21:30:11.079Z,8.9
2023-03-20T21:32:17.089Z,8.87
2023-03-20T21:34:24.929Z,8.87
2023-03-20T21:36:31.719Z,8.86
2023-03-20T21:39:09.576Z,8.88
2023-03-20T21:41:17.084Z,8.85
2023-03-20T21:43:25.427Z,8.83
2023-03-20T21:50:31.029Z,8.81
2023-03-20T22:10:51.198Z,8.6
2023-03-20T22:26:21.149Z,8.33
2023-03-20T22:36:07.094Z,8.24
2023-03-20T22:41:22.860Z,8.21
2023-03-20T22:45:34.550Z,8.16
2023-03-20T22:48:49.331Z,8.15
2023-03-20T22:50:54.619Z,8.11
2023-03-20T22:53:37.349Z,8.1
2023-03-20T22:55:42.843Z,8.1
2023-03-20T22:58:03.647Z,8.1
2023-03-20T23:00:12.652Z,8.06
2023-03-20T23:02:17.888Z,8.06
2023-03-20T23:04:23.591Z,8.06
2023-03-20T23:06:33.384Z,8.05
2023-03-20T23:08:48.895Z,8.05
2023-03-20T23:11:16.533Z,8.05
2023-03-20T23:13:23.191Z,8.02
2023-03-20T23:15:28.300Z,8.01
2023-03-20T23:17:33.778Z,8.02
2023-03-20T23:19:47.650Z,7.99
2023-03-20T23:22:22.628Z,7.98
2023-03-20T23:24:30.297Z,7.97
2023-03-20T23:26:35.537Z,7.99
2023-03-20T23:28:40.931Z,7.98
2023-03-20T23:30:56.641Z,7.96
2023-03-20T23:33:15.997Z,7.96
2023-03-20T23:35:24.017Z,7.95
2023-03-20T23:37:30.127Z,7.95
2023-03-20T23:39:35.768Z,7.93
2023-03-20T23:44:34.975Z,7.84
2023-03-20T23:47:14.416Z,7.77
2023-03-20T23:49:34.610Z,7.74
2023-03-20T23:51:40.078Z,7.73
2023-03-20T23:53:46.303Z,7.67
2023-03-20T23:55:52.221Z,7.6
2023-03-20T23:57:57.849Z,7.56
